KGNT

Details ICAO KGNT (GNT)
Name Grants Milan Muni
Region United States
Timezone America/Denver (UTC-7.0)
Plans Departing 11
Arriving 7
Stats Elevation 6,537 ft / 1,992 m (AMSL)
Location 35.165218° -107.900599°
Runways 2
Magnetic Variation 9.088° E
Sunrise 2017-12-16 14:14:53 UTC / 2017-12-16 07:14:53 Local
Sunset 2017-12-17 00:02:38 UTC / 2017-12-16 17:02:38 Local
Advertisement - Login to hide

Runways

ID Width Length Bearing (true) Bearing (mag) Surface Threshold Offset Overrun Length
08 40 ft / 12 m 2,346 ft / 715 m 91.83° 82.74° Dirt 0 ft / 0 m 0 ft / 0 m
13 75 ft / 23 m 7,180 ft / 2,188 m 145.10° 136.01° Asphalt 0 ft / 0 m 0 ft / 0 m
26 40 ft / 12 m 2,346 ft / 715 m 271.84° 262.75° Dirt 0 ft / 0 m 0 ft / 0 m
31 75 ft / 23 m 7,180 ft / 2,188 m 325.11° 316.02° Asphalt 0 ft / 0 m 0 ft / 0 m

Map

Weather


0- 5 10 15 20 25 30 35+ Temperature / ° C

Clouds and Precipitation
Forecast for 2017-12-17 00:00 UTC. Updated 2 hours ago

Ground ~20,000 ft ~40,000 ft Winds

METAR

KGNT 170055Z AUTO 27005KT 10SM CLR 05/M22 A2982 RMK AO2 T00541223

TAF

Not found

Frequencies

Unicom 122.80 MHz CTAF/UNICOM
Warning: Do not use this data for real-world aviation or navigation. No guarantee of current accuracy is given.